sensor_id;sensor_type;location;lat;lon;timestamp;temperature;humidity
1075;DHT22;526;51.392;12.448;2023-05-07T00:02:21;9.80;97.30
1075;DHT22;526;51.392;12.448;2023-05-07T00:04:48;9.80;97.30
1075;DHT22;526;51.392;12.448;2023-05-07T00:07:14;9.80;97.30
1075;DHT22;526;51.392;12.448;2023-05-07T00:09:40;9.80;97.30
1075;DHT22;526;51.392;12.448;2023-05-07T00:12:05;9.80;97.30
1075;DHT22;526;51.392;12.448;2023-05-07T00:14:31;9.80;97.30
1075;DHT22;526;51.392;12.448;2023-05-07T00:16:56;9.80;97.30
1075;DHT22;526;51.392;12.448;2023-05-07T00:19:22;9.90;97.30
1075;DHT22;526;51.392;12.448;2023-05-07T00:21:47;9.90;97.30
1075;DHT22;526;51.392;12.448;2023-05-07T00:24:13;9.90;97.30
1075;DHT22;526;51.392;12.448;2023-05-07T00:26:38;9.90;97.30
1075;DHT22;526;51.392;12.448;2023-05-07T00:29:04;9.90;97.30
1075;DHT22;526;51.392;12.448;2023-05-07T00:31:29;9.90;97.30
1075;DHT22;526;51.392;12.448;2023-05-07T00:33:55;9.80;97.30
1075;DHT22;526;51.392;12.448;2023-05-07T00:36:20;9.80;97.30
1075;DHT22;526;51.392;12.448;2023-05-07T00:38:46;9.80;97.30
1075;DHT22;526;51.392;12.448;2023-05-07T00:41:11;9.70;97.30
1075;DHT22;526;51.392;12.448;2023-05-07T00:43:37;9.70;97.30
1075;DHT22;526;51.392;12.448;2023-05-07T00:46:03;9.70;97.30
1075;DHT22;526;51.392;12.448;2023-05-07T00:48:28;9.70;97.30
1075;DHT22;526;51.392;12.448;2023-05-07T00:50:54;9.70;97.30
1075;DHT22;526;51.392;12.448;2023-05-07T00:53:20;9.70;97.30
1075;DHT22;526;51.392;12.448;2023-05-07T00:55:46;9.70;97.30
1075;DHT22;526;51.392;12.448;2023-05-07T00:58:11;9.70;97.30
1075;DHT22;526;51.392;12.448;2023-05-07T01:00:37;9.70;97.30
1075;DHT22;526;51.392;12.448;2023-05-07T01:03:03;9.70;97.30
1075;DHT22;526;51.392;12.448;2023-05-07T01:05:29;9.80;97.30
1075;DHT22;526;51.392;12.448;2023-05-07T01:07:56;9.80;97.30
1075;DHT22;526;51.392;12.448;2023-05-07T01:10:23;9.70;97.30
1075;DHT22;526;51.392;12.448;2023-05-07T01:12:50;9.70;97.30
1075;DHT22;526;51.392;12.448;2023-05-07T01:15:16;9.70;97.30
1075;DHT22;526;51.392;12.448;2023-05-07T01:17:42;9.70;97.30
1075;DHT22;526;51.392;12.448;2023-05-07T01:20:09;9.70;97.30
1075;DHT22;526;51.392;12.448;2023-05-07T01:22:37;9.70;97.30
1075;DHT22;526;51.392;12.448;2023-05-07T01:25:04;9.60;97.30
1075;DHT22;526;51.392;12.448;2023-05-07T01:27:30;9.60;97.30
1075;DHT22;526;51.392;12.448;2023-05-07T01:29:55;9.70;97.30
1075;DHT22;526;51.392;12.448;2023-05-07T01:32:25;9.70;97.30
1075;DHT22;526;51.392;12.448;2023-05-07T01:34:52;9.60;97.30
1075;DHT22;526;51.392;12.448;2023-05-07T01:37:19;9.60;97.30
1075;DHT22;526;51.392;12.448;2023-05-07T01:39:46;9.60;97.30
1075;DHT22;526;51.392;12.448;2023-05-07T01:42:12;9.60;97.30
1075;DHT22;526;51.392;12.448;2023-05-07T01:44:38;9.60;97.30
1075;DHT22;526;51.392;12.448;2023-05-07T01:47:03;9.50;97.30
1075;DHT22;526;51.392;12.448;2023-05-07T01:49:29;9.60;97.30
1075;DHT22;526;51.392;12.448;2023-05-07T01:51:55;9.60;97.30
1075;DHT22;526;51.392;12.448;2023-05-07T01:54:25;9.60;97.30
1075;DHT22;526;51.392;12.448;2023-05-07T01:56:53;9.60;97.30
1075;DHT22;526;51.392;12.448;2023-05-07T01:59:18;9.60;97.30
1075;DHT22;526;51.392;12.448;2023-05-07T02:01:44;9.60;97.30
1075;DHT22;526;51.392;12.448;2023-05-07T02:04:09;9.60;97.30
1075;DHT22;526;51.392;12.448;2023-05-07T02:06:34;9.60;97.30
1075;DHT22;526;51.392;12.448;2023-05-07T02:09:01;9.60;97.30
1075;DHT22;526;51.392;12.448;2023-05-07T02:11:26;9.60;97.30
1075;DHT22;526;51.392;12.448;2023-05-07T02:13:52;9.60;97.30
1075;DHT22;526;51.392;12.448;2023-05-07T02:16:18;9.60;97.30
1075;DHT22;526;51.392;12.448;2023-05-07T02:18:45;9.60;97.30
1075;DHT22;526;51.392;12.448;2023-05-07T02:21:10;9.60;97.30
1075;DHT22;526;51.392;12.448;2023-05-07T02:23:36;9.50;97.30
1075;DHT22;526;51.392;12.448;2023-05-07T02:26:01;9.50;97.30
1075;DHT22;526;51.392;12.448;2023-05-07T02:28:27;9.50;97.30
1075;DHT22;526;51.392;12.448;2023-05-07T02:30:52;9.50;97.30
1075;DHT22;526;51.392;12.448;2023-05-07T02:33:18;9.50;97.30
1075;DHT22;526;51.392;12.448;2023-05-07T02:35:44;9.40;97.30
1075;DHT22;526;51.392;12.448;2023-05-07T02:38:09;9.40;97.30
1075;DHT22;526;51.392;12.448;2023-05-07T02:40:36;9.40;97.30
1075;DHT22;526;51.392;12.448;2023-05-07T02:43:04;9.40;97.30
1075;DHT22;526;51.392;12.448;2023-05-07T02:45:31;9.40;97.30
1075;DHT22;526;51.392;12.448;2023-05-07T02:47:56;9.50;97.30
1075;DHT22;526;51.392;12.448;2023-05-07T02:50:22;9.50;97.30
1075;DHT22;526;51.392;12.448;2023-05-07T02:52:47;9.50;97.30
1075;DHT22;526;51.392;12.448;2023-05-07T02:55:14;9.50;97.30
1075;DHT22;526;51.392;12.448;2023-05-07T02:57:39;9.50;97.30
1075;DHT22;526;51.392;12.448;2023-05-07T03:00:18;9.50;97.30
1075;DHT22;526;51.392;12.448;2023-05-07T03:02:45;9.50;97.30
1075;DHT22;526;51.392;12.448;2023-05-07T03:05:11;9.50;97.30
1075;DHT22;526;51.392;12.448;2023-05-07T03:07:37;9.50;97.30
1075;DHT22;526;51.392;12.448;2023-05-07T03:10:04;9.50;97.30
1075;DHT22;526;51.392;12.448;2023-05-07T03:12:29;9.40;97.30
1075;DHT22;526;51.392;12.448;2023-05-07T03:14:55;9.40;97.30
1075;DHT22;526;51.392;12.448;2023-05-07T03:17:21;9.40;97.30
1075;DHT22;526;51.392;12.448;2023-05-07T03:19:46;9.40;97.30
1075;DHT22;526;51.392;12.448;2023-05-07T03:22:12;9.40;97.30
1075;DHT22;526;51.392;12.448;2023-05-07T03:24:37;9.40;97.30
1075;DHT22;526;51.392;12.448;2023-05-07T03:27:03;9.40;97.30
1075;DHT22;526;51.392;12.448;2023-05-07T03:29:28;9.30;97.30
1075;DHT22;526;51.392;12.448;2023-05-07T03:31:54;9.30;97.30
1075;DHT22;526;51.392;12.448;2023-05-07T03:34:19;9.30;97.30
1075;DHT22;526;51.392;12.448;2023-05-07T03:36:48;9.30;97.30
1075;DHT22;526;51.392;12.448;2023-05-07T03:39:14;9.30;97.30
1075;DHT22;526;51.392;12.448;2023-05-07T03:41:39;9.30;97.30
1075;DHT22;526;51.392;12.448;2023-05-07T03:44:05;9.30;97.30
1075;DHT22;526;51.392;12.448;2023-05-07T03:46:31;9.30;97.30
1075;DHT22;526;51.392;12.448;2023-05-07T03:48:58;9.40;97.30
1075;DHT22;526;51.392;12.448;2023-05-07T03:51:23;9.40;97.30
1075;DHT22;526;51.392;12.448;2023-05-07T03:53:49;9.40;97.30
1075;DHT22;526;51.392;12.448;2023-05-07T03:56:14;9.40;97.30
1075;DHT22;526;51.392;12.448;2023-05-07T03:58:40;9.40;97.30
1075;DHT22;526;51.392;12.448;2023-05-07T04:01:06;9.40;97.30
1075;DHT22;526;51.392;12.448;2023-05-07T04:03:32;9.40;97.30
1075;DHT22;526;51.392;12.448;2023-05-07T04:05:58;9.40;97.30
1075;DHT22;526;51.392;12.448;2023-05-07T04:08:23;9.30;97.30
1075;DHT22;526;51.392;12.448;2023-05-07T04:10:54;9.30;97.30
1075;DHT22;526;51.392;12.448;2023-05-07T04:13:20;9.40;97.30
1075;DHT22;526;51.392;12.448;2023-05-07T04:15:45;9.40;97.30
1075;DHT22;526;51.392;12.448;2023-05-07T04:18:11;9.40;97.30
1075;DHT22;526;51.392;12.448;2023-05-07T04:20:37;9.40;97.30
1075;DHT22;526;51.392;12.448;2023-05-07T04:23:02;9.40;97.30
1075;DHT22;526;51.392;12.448;2023-05-07T04:25:28;9.40;97.30
1075;DHT22;526;51.392;12.448;2023-05-07T04:27:53;9.40;97.30
1075;DHT22;526;51.392;12.448;2023-05-07T04:30:19;9.40;97.30
1075;DHT22;526;51.392;12.448;2023-05-07T04:32:44;9.50;97.30
1075;DHT22;526;51.392;12.448;2023-05-07T04:35:10;9.50;97.30
1075;DHT22;526;51.392;12.448;2023-05-07T04:37:36;9.50;97.30
1075;DHT22;526;51.392;12.448;2023-05-07T04:40:01;9.40;97.30
1075;DHT22;526;51.392;12.448;2023-05-07T04:42:28;9.50;97.30
1075;DHT22;526;51.392;12.448;2023-05-07T04:44:53;9.50;97.30
1075;DHT22;526;51.392;12.448;2023-05-07T04:47:20;9.50;97.30
1075;DHT22;526;51.392;12.448;2023-05-07T04:49:46;9.40;97.30
1075;DHT22;526;51.392;12.448;2023-05-07T04:52:11;9.50;97.30
1075;DHT22;526;51.392;12.448;2023-05-07T04:54:37;9.50;97.30
1075;DHT22;526;51.392;12.448;2023-05-07T04:57:03;9.50;97.30
1075;DHT22;526;51.392;12.448;2023-05-07T04:59:30;9.50;97.30
1075;DHT22;526;51.392;12.448;2023-05-07T05:01:55;9.60;97.30
1075;DHT22;526;51.392;12.448;2023-05-07T05:04:21;9.60;97.30
1075;DHT22;526;51.392;12.448;2023-05-07T05:06:46;9.60;97.30
1075;DHT22;526;51.392;12.448;2023-05-07T05:09:12;9.60;97.30
1075;DHT22;526;51.392;12.448;2023-05-07T05:11:37;9.60;97.30
1075;DHT22;526;51.392;12.448;2023-05-07T05:14:03;9.70;97.30
1075;DHT22;526;51.392;12.448;2023-05-07T05:16:29;9.70;97.30
1075;DHT22;526;51.392;12.448;2023-05-07T05:18:54;9.70;97.30
1075;DHT22;526;51.392;12.448;2023-05-07T05:21:20;9.70;97.30
1075;DHT22;526;51.392;12.448;2023-05-07T05:23:46;9.80;97.30
1075;DHT22;526;51.392;12.448;2023-05-07T05:26:12;9.70;97.30
1075;DHT22;526;51.392;12.448;2023-05-07T05:28:38;9.70;97.30
1075;DHT22;526;51.392;12.448;2023-05-07T05:31:04;9.70;97.30
1075;DHT22;526;51.392;12.448;2023-05-07T05:33:30;9.70;97.30
1075;DHT22;526;51.392;12.448;2023-05-07T05:35:55;9.70;97.30
1075;DHT22;526;51.392;12.448;2023-05-07T05:38:21;9.70;97.30
1075;DHT22;526;51.392;12.448;2023-05-07T05:40:47;9.70;97.30
1075;DHT22;526;51.392;12.448;2023-05-07T05:43:13;9.70;97.30
1075;DHT22;526;51.392;12.448;2023-05-07T05:45:38;9.70;97.30
1075;DHT22;526;51.392;12.448;2023-05-07T05:48:04;9.70;97.30
1075;DHT22;526;51.392;12.448;2023-05-07T05:50:31;9.70;97.30
1075;DHT22;526;51.392;12.448;2023-05-07T05:52:56;9.80;97.30
1075;DHT22;526;51.392;12.448;2023-05-07T05:55:23;9.80;97.30
1075;DHT22;526;51.392;12.448;2023-05-07T05:57:49;9.90;97.30
1075;DHT22;526;51.392;12.448;2023-05-07T06:00:15;9.90;97.30
1075;DHT22;526;51.392;12.448;2023-05-07T06:02:41;10.00;97.30
1075;DHT22;526;51.392;12.448;2023-05-07T06:05:08;9.90;97.30
1075;DHT22;526;51.392;12.448;2023-05-07T06:07:33;9.90;97.30
1075;DHT22;526;51.392;12.448;2023-05-07T06:10:00;9.90;97.30
1075;DHT22;526;51.392;12.448;2023-05-07T06:12:25;9.90;97.30
1075;DHT22;526;51.392;12.448;2023-05-07T06:14:51;10.00;97.30
1075;DHT22;526;51.392;12.448;2023-05-07T06:17:17;10.00;97.30
1075;DHT22;526;51.392;12.448;2023-05-07T06:19:43;10.00;97.30
1075;DHT22;526;51.392;12.448;2023-05-07T06:22:08;9.90;97.30
1075;DHT22;526;51.392;12.448;2023-05-07T06:24:33;9.90;97.30
1075;DHT22;526;51.392;12.448;2023-05-07T06:26:59;9.90;97.30
1075;DHT22;526;51.392;12.448;2023-05-07T06:29:25;9.90;97.30
1075;DHT22;526;51.392;12.448;2023-05-07T06:31:52;9.90;97.30
1075;DHT22;526;51.392;12.448;2023-05-07T06:34:18;9.90;97.30
1075;DHT22;526;51.392;12.448;2023-05-07T06:36:43;9.90;97.30
1075;DHT22;526;51.392;12.448;2023-05-07T06:39:08;10.00;97.30
1075;DHT22;526;51.392;12.448;2023-05-07T06:41:34;10.00;97.30
1075;DHT22;526;51.392;12.448;2023-05-07T06:44:04;10.00;97.30
1075;DHT22;526;51.392;12.448;2023-05-07T06:46:30;10.10;97.30
1075;DHT22;526;51.392;12.448;2023-05-07T06:48:56;10.10;97.30
1075;DHT22;526;51.392;12.448;2023-05-07T06:51:22;10.10;97.30
1075;DHT22;526;51.392;12.448;2023-05-07T06:53:47;10.10;97.30
1075;DHT22;526;51.392;12.448;2023-05-07T06:56:13;10.20;97.30
1075;DHT22;526;51.392;12.448;2023-05-07T06:58:38;10.20;97.30
1075;DHT22;526;51.392;12.448;2023-05-07T07:01:04;10.20;97.30
1075;DHT22;526;51.392;12.448;2023-05-07T07:03:30;10.20;97.30
1075;DHT22;526;51.392;12.448;2023-05-07T07:05:55;10.30;97.30
1075;DHT22;526;51.392;12.448;2023-05-07T07:08:22;10.30;97.30
1075;DHT22;526;51.392;12.448;2023-05-07T07:10:47;10.40;97.30
1075;DHT22;526;51.392;12.448;2023-05-07T07:13:13;10.50;97.30
1075;DHT22;526;51.392;12.448;2023-05-07T07:15:39;10.50;97.30
1075;DHT22;526;51.392;12.448;2023-05-07T07:18:05;10.60;97.30
1075;DHT22;526;51.392;12.448;2023-05-07T07:20:30;10.60;97.30
1075;DHT22;526;51.392;12.448;2023-05-07T07:22:56;10.60;97.30
1075;DHT22;526;51.392;12.448;2023-05-07T07:25:21;10.60;97.30
1075;DHT22;526;51.392;12.448;2023-05-07T07:27:47;10.60;97.30
1075;DHT22;526;51.392;12.448;2023-05-07T07:30:13;10.60;97.30
1075;DHT22;526;51.392;12.448;2023-05-07T07:32:38;10.60;97.30
1075;DHT22;526;51.392;12.448;2023-05-07T07:35:04;10.60;97.30
1075;DHT22;526;51.392;12.448;2023-05-07T07:37:30;10.70;97.30
1075;DHT22;526;51.392;12.448;2023-05-07T07:39:55;10.80;97.30
1075;DHT22;526;51.392;12.448;2023-05-07T07:42:21;10.80;97.30
1075;DHT22;526;51.392;12.448;2023-05-07T07:44:46;10.90;97.30
1075;DHT22;526;51.392;12.448;2023-05-07T07:47:12;10.90;97.30
1075;DHT22;526;51.392;12.448;2023-05-07T07:49:37;10.90;97.30
1075;DHT22;526;51.392;12.448;2023-05-07T07:52:03;10.90;97.30
1075;DHT22;526;51.392;12.448;2023-05-07T07:54:29;10.80;97.30
1075;DHT22;526;51.392;12.448;2023-05-07T07:56:54;10.90;97.30
1075;DHT22;526;51.392;12.448;2023-05-07T07:59:20;10.90;97.30
1075;DHT22;526;51.392;12.448;2023-05-07T08:01:45;11.00;97.30
1075;DHT22;526;51.392;12.448;2023-05-07T08:04:13;11.00;97.30
1075;DHT22;526;51.392;12.448;2023-05-07T08:06:39;10.90;97.30
1075;DHT22;526;51.392;12.448;2023-05-07T08:09:04;10.90;97.30
1075;DHT22;526;51.392;12.448;2023-05-07T08:11:30;10.90;97.30
1075;DHT22;526;51.392;12.448;2023-05-07T08:13:56;10.90;97.30
1075;DHT22;526;51.392;12.448;2023-05-07T08:16:21;11.00;97.30
1075;DHT22;526;51.392;12.448;2023-05-07T08:18:47;11.10;97.30
1075;DHT22;526;51.392;12.448;2023-05-07T08:21:12;11.10;97.30
1075;DHT22;526;51.392;12.448;2023-05-07T08:23:38;11.10;97.30
1075;DHT22;526;51.392;12.448;2023-05-07T08:26:03;11.10;97.30
1075;DHT22;526;51.392;12.448;2023-05-07T08:28:29;11.10;97.30
1075;DHT22;526;51.392;12.448;2023-05-07T08:30:54;11.00;97.30
1075;DHT22;526;51.392;12.448;2023-05-07T08:33:22;11.10;97.30
1075;DHT22;526;51.392;12.448;2023-05-07T08:35:47;11.10;97.30
1075;DHT22;526;51.392;12.448;2023-05-07T08:38:12;11.20;97.30
1075;DHT22;526;51.392;12.448;2023-05-07T08:40:39;11.20;97.30
1075;DHT22;526;51.392;12.448;2023-05-07T08:43:06;11.30;97.30
1075;DHT22;526;51.392;12.448;2023-05-07T08:45:33;11.30;97.30
1075;DHT22;526;51.392;12.448;2023-05-07T08:48:02;11.40;97.30
1075;DHT22;526;51.392;12.448;2023-05-07T08:50:28;11.40;97.30
1075;DHT22;526;51.392;12.448;2023-05-07T08:52:54;11.40;97.30
1075;DHT22;526;51.392;12.448;2023-05-07T08:55:20;11.40;97.30
1075;DHT22;526;51.392;12.448;2023-05-07T08:57:46;11.40;97.30
1075;DHT22;526;51.392;12.448;2023-05-07T09:00:13;11.40;97.30
1075;DHT22;526;51.392;12.448;2023-05-07T09:02:39;11.40;97.30
1075;DHT22;526;51.392;12.448;2023-05-07T09:05:05;11.40;97.30
1075;DHT22;526;51.392;12.448;2023-05-07T09:07:30;11.30;97.30
1075;DHT22;526;51.392;12.448;2023-05-07T09:09:56;11.30;97.30
1075;DHT22;526;51.392;12.448;2023-05-07T09:12:22;11.30;97.30
1075;DHT22;526;51.392;12.448;2023-05-07T09:14:49;11.30;97.30
1075;DHT22;526;51.392;12.448;2023-05-07T09:17:18;11.40;97.30
1075;DHT22;526;51.392;12.448;2023-05-07T09:19:44;11.40;97.30
1075;DHT22;526;51.392;12.448;2023-05-07T09:22:13;11.40;97.30
1075;DHT22;526;51.392;12.448;2023-05-07T09:24:39;11.40;97.30
1075;DHT22;526;51.392;12.448;2023-05-07T09:27:05;11.50;97.30
1075;DHT22;526;51.392;12.448;2023-05-07T09:29:31;11.50;97.30
1075;DHT22;526;51.392;12.448;2023-05-07T09:32:07;11.50;97.30
1075;DHT22;526;51.392;12.448;2023-05-07T09:34:32;11.50;97.30
1075;DHT22;526;51.392;12.448;2023-05-07T09:37:05;11.60;97.30
1075;DHT22;526;51.392;12.448;2023-05-07T09:39:45;11.60;97.30
1075;DHT22;526;51.392;12.448;2023-05-07T09:42:12;11.70;97.30
1075;DHT22;526;51.392;12.448;2023-05-07T09:44:38;11.70;97.30
1075;DHT22;526;51.392;12.448;2023-05-07T09:47:07;11.80;97.30
1075;DHT22;526;51.392;12.448;2023-05-07T09:49:35;11.80;97.30
1075;DHT22;526;51.392;12.448;2023-05-07T09:52:02;11.80;97.30
1075;DHT22;526;51.392;12.448;2023-05-07T09:54:29;11.80;97.30
1075;DHT22;526;51.392;12.448;2023-05-07T09:56:55;11.80;97.30
1075;DHT22;526;51.392;12.448;2023-05-07T09:59:21;11.80;97.30
1075;DHT22;526;51.392;12.448;2023-05-07T10:01:48;11.80;97.30
1075;DHT22;526;51.392;12.448;2023-05-07T10:04:14;11.80;97.30
1075;DHT22;526;51.392;12.448;2023-05-07T10:06:40;11.80;97.30
1075;DHT22;526;51.392;12.448;2023-05-07T10:09:06;11.80;97.30
1075;DHT22;526;51.392;12.448;2023-05-07T10:11:35;11.90;97.30
1075;DHT22;526;51.392;12.448;2023-05-07T10:14:02;11.90;97.30
1075;DHT22;526;51.392;12.448;2023-05-07T10:16:37;11.90;97.30
1075;DHT22;526;51.392;12.448;2023-05-07T10:19:08;12.00;97.30
1075;DHT22;526;51.392;12.448;2023-05-07T10:21:36;12.10;97.30
1075;DHT22;526;51.392;12.448;2023-05-07T10:24:09;12.10;97.30
1075;DHT22;526;51.392;12.448;2023-05-07T10:26:43;12.10;97.30
1075;DHT22;526;51.392;12.448;2023-05-07T10:34:50;12.00;97.30
1075;DHT22;526;51.392;12.448;2023-05-07T10:37:18;12.00;97.30
1075;DHT22;526;51.392;12.448;2023-05-07T10:39:44;11.90;97.30
1075;DHT22;526;51.392;12.448;2023-05-07T10:42:11;11.80;97.30
1075;DHT22;526;51.392;12.448;2023-05-07T10:44:37;11.80;97.30
1075;DHT22;526;51.392;12.448;2023-05-07T10:47:12;11.80;97.30
1075;DHT22;526;51.392;12.448;2023-05-07T10:52:13;11.80;97.30
1075;DHT22;526;51.392;12.448;2023-05-07T10:54:40;12.00;97.30
1075;DHT22;526;51.392;12.448;2023-05-07T10:59:56;12.20;97.30
1075;DHT22;526;51.392;12.448;2023-05-07T11:02:21;12.30;97.30
1075;DHT22;526;51.392;12.448;2023-05-07T11:05:18;12.40;97.30
1075;DHT22;526;51.392;12.448;2023-05-07T11:07:54;12.30;97.30
1075;DHT22;526;51.392;12.448;2023-05-07T11:10:22;12.20;97.30
1075;DHT22;526;51.392;12.448;2023-05-07T11:12:49;12.10;97.30
1075;DHT22;526;51.392;12.448;2023-05-07T11:15:36;12.10;97.30
1075;DHT22;526;51.392;12.448;2023-05-07T11:18:03;12.10;97.30
1075;DHT22;526;51.392;12.448;2023-05-07T11:26:06;12.40;97.30
1075;DHT22;526;51.392;12.448;2023-05-07T11:28:40;12.50;97.30
1075;DHT22;526;51.392;12.448;2023-05-07T11:31:06;12.60;97.30
1075;DHT22;526;51.392;12.448;2023-05-07T11:33:33;12.60;97.30
1075;DHT22;526;51.392;12.448;2023-05-07T11:36:00;12.50;97.30
1075;DHT22;526;51.392;12.448;2023-05-07T11:38:26;12.60;97.30
1075;DHT22;526;51.392;12.448;2023-05-07T11:40:55;12.60;97.30
1075;DHT22;526;51.392;12.448;2023-05-07T11:43:21;12.60;97.30
1075;DHT22;526;51.392;12.448;2023-05-07T11:45:47;12.60;97.30
1075;DHT22;526;51.392;12.448;2023-05-07T11:48:14;12.60;97.30
1075;DHT22;526;51.392;12.448;2023-05-07T11:50:53;12.60;97.30
1075;DHT22;526;51.392;12.448;2023-05-07T11:53:20;12.60;97.30
1075;DHT22;526;51.392;12.448;2023-05-07T11:55:46;12.70;97.30
1075;DHT22;526;51.392;12.448;2023-05-07T11:58:12;12.80;97.30
1075;DHT22;526;51.392;12.448;2023-05-07T12:00:53;12.80;97.30
1075;DHT22;526;51.392;12.448;2023-05-07T12:03:19;12.80;97.30
1075;DHT22;526;51.392;12.448;2023-05-07T12:05:45;12.80;97.30
1075;DHT22;526;51.392;12.448;2023-05-07T12:08:14;12.80;97.30
1075;DHT22;526;51.392;12.448;2023-05-07T12:10:41;12.80;97.30
1075;DHT22;526;51.392;12.448;2023-05-07T12:13:26;12.90;97.30
1075;DHT22;526;51.392;12.448;2023-05-07T12:15:56;13.00;97.30
1075;DHT22;526;51.392;12.448;2023-05-07T12:18:23;13.10;97.30
1075;DHT22;526;51.392;12.448;2023-05-07T12:20:49;13.10;97.30
1075;DHT22;526;51.392;12.448;2023-05-07T12:23:15;13.10;97.30
1075;DHT22;526;51.392;12.448;2023-05-07T12:25:43;13.00;97.30
1075;DHT22;526;51.392;12.448;2023-05-07T12:28:16;12.90;97.30
1075;DHT22;526;51.392;12.448;2023-05-07T12:30:44;12.90;97.30
1075;DHT22;526;51.392;12.448;2023-05-07T12:33:10;12.90;97.30
1075;DHT22;526;51.392;12.448;2023-05-07T12:35:38;12.90;97.30
1075;DHT22;526;51.392;12.448;2023-05-07T12:38:14;13.00;97.30
1075;DHT22;526;51.392;12.448;2023-05-07T12:40:43;13.10;97.30
1075;DHT22;526;51.392;12.448;2023-05-07T12:43:19;13.30;97.20
1075;DHT22;526;51.392;12.448;2023-05-07T12:45:48;13.40;97.30
1075;DHT22;526;51.392;12.448;2023-05-07T12:48:14;13.60;97.30
1075;DHT22;526;51.392;12.448;2023-05-07T12:50:42;13.80;96.50
1075;DHT22;526;51.392;12.448;2023-05-07T12:53:09;13.80;95.90
1075;DHT22;526;51.392;12.448;2023-05-07T12:55:50;14.00;95.40
1075;DHT22;526;51.392;12.448;2023-05-07T13:00:45;14.60;94.50
1075;DHT22;526;51.392;12.448;2023-05-07T13:03:24;14.80;94.40
1075;DHT22;526;51.392;12.448;2023-05-07T13:05:50;14.80;93.70
1075;DHT22;526;51.392;12.448;2023-05-07T13:08:30;14.70;94.80
1075;DHT22;526;51.392;12.448;2023-05-07T13:10:57;14.70;94.50
1075;DHT22;526;51.392;12.448;2023-05-07T13:13:23;14.60;94.20
1075;DHT22;526;51.392;12.448;2023-05-07T13:15:48;14.50;93.80
1075;DHT22;526;51.392;12.448;2023-05-07T13:18:14;14.40;93.80
1075;DHT22;526;51.392;12.448;2023-05-07T13:20:40;14.20;94.60
1075;DHT22;526;51.392;12.448;2023-05-07T13:23:06;14.10;94.60
1075;DHT22;526;51.392;12.448;2023-05-07T13:25:31;14.00;95.30
1075;DHT22;526;51.392;12.448;2023-05-07T13:27:57;14.10;95.50
1075;DHT22;526;51.392;12.448;2023-05-07T13:30:22;14.10;95.90
1075;DHT22;526;51.392;12.448;2023-05-07T13:32:48;14.00;94.90
1075;DHT22;526;51.392;12.448;2023-05-07T13:35:15;14.00;95.30
1075;DHT22;526;51.392;12.448;2023-05-07T13:37:40;13.90;95.30
1075;DHT22;526;51.392;12.448;2023-05-07T13:40:06;13.90;95.50
1075;DHT22;526;51.392;12.448;2023-05-07T13:42:32;14.00;95.00
1075;DHT22;526;51.392;12.448;2023-05-07T13:44:57;14.00;95.20
1075;DHT22;526;51.392;12.448;2023-05-07T13:47:23;13.90;94.40
1075;DHT22;526;51.392;12.448;2023-05-07T13:49:48;13.80;94.70
1075;DHT22;526;51.392;12.448;2023-05-07T13:52:15;13.80;95.00
1075;DHT22;526;51.392;12.448;2023-05-07T13:54:41;13.70;95.50
1075;DHT22;526;51.392;12.448;2023-05-07T13:57:06;13.70;95.50
1075;DHT22;526;51.392;12.448;2023-05-07T13:59:32;13.70;95.80
1075;DHT22;526;51.392;12.448;2023-05-07T14:01:58;13.80;96.10
1075;DHT22;526;51.392;12.448;2023-05-07T14:04:23;13.90;95.70
1075;DHT22;526;51.392;12.448;2023-05-07T14:06:49;14.00;95.70
1075;DHT22;526;51.392;12.448;2023-05-07T14:09:14;14.20;95.40
1075;DHT22;526;51.392;12.448;2023-05-07T14:11:40;14.30;95.40
1075;DHT22;526;51.392;12.448;2023-05-07T14:14:06;14.30;94.50
1075;DHT22;526;51.392;12.448;2023-05-07T14:16:31;14.20;94.50
1075;DHT22;526;51.392;12.448;2023-05-07T14:18:57;14.10;94.50
1075;DHT22;526;51.392;12.448;2023-05-07T14:21:22;14.10;94.70
1075;DHT22;526;51.392;12.448;2023-05-07T14:23:48;14.20;95.10
1075;DHT22;526;51.392;12.448;2023-05-07T14:26:13;14.40;94.80
1075;DHT22;526;51.392;12.448;2023-05-07T14:28:39;14.60;94.00
1075;DHT22;526;51.392;12.448;2023-05-07T14:31:05;14.50;93.60
1075;DHT22;526;51.392;12.448;2023-05-07T14:33:31;14.40;93.70
1075;DHT22;526;51.392;12.448;2023-05-07T14:35:57;14.40;93.90
1075;DHT22;526;51.392;12.448;2023-05-07T14:38:22;14.30;93.50
1075;DHT22;526;51.392;12.448;2023-05-07T14:40:48;14.20;93.80
1075;DHT22;526;51.392;12.448;2023-05-07T14:43:13;14.20;93.50
1075;DHT22;526;51.392;12.448;2023-05-07T14:45:38;14.40;94.20
1075;DHT22;526;51.392;12.448;2023-05-07T14:48:04;14.50;93.90
1075;DHT22;526;51.392;12.448;2023-05-07T14:50:30;14.60;93.30
1075;DHT22;526;51.392;12.448;2023-05-07T14:52:56;14.60;93.70
1075;DHT22;526;51.392;12.448;2023-05-07T14:55:21;14.50;93.50
1075;DHT22;526;51.392;12.448;2023-05-07T14:57:47;14.50;93.80
1075;DHT22;526;51.392;12.448;2023-05-07T15:00:18;14.60;93.60
1075;DHT22;526;51.392;12.448;2023-05-07T15:02:57;14.60;92.70
1075;DHT22;526;51.392;12.448;2023-05-07T15:08:40;14.50;93.20
1075;DHT22;526;51.392;12.448;2023-05-07T15:11:09;14.40;93.10
1075;DHT22;526;51.392;12.448;2023-05-07T15:13:34;14.40;93.30
1075;DHT22;526;51.392;12.448;2023-05-07T15:16:00;14.30;93.50
1075;DHT22;526;51.392;12.448;2023-05-07T15:18:25;14.30;94.00
1075;DHT22;526;51.392;12.448;2023-05-07T15:20:51;14.40;93.80
1075;DHT22;526;51.392;12.448;2023-05-07T15:23:17;14.40;93.40
1075;DHT22;526;51.392;12.448;2023-05-07T15:25:42;14.30;94.30
1075;DHT22;526;51.392;12.448;2023-05-07T15:28:08;14.30;94.00
1075;DHT22;526;51.392;12.448;2023-05-07T15:30:33;14.20;93.90
1075;DHT22;526;51.392;12.448;2023-05-07T15:33:00;14.10;93.80
1075;DHT22;526;51.392;12.448;2023-05-07T15:35:26;14.10;94.50
1075;DHT22;526;51.392;12.448;2023-05-07T15:37:51;14.00;94.50
1075;DHT22;526;51.392;12.448;2023-05-07T15:40:20;14.00;94.70
1075;DHT22;526;51.392;12.448;2023-05-07T15:42:46;14.00;94.80
1075;DHT22;526;51.392;12.448;2023-05-07T15:45:12;14.00;94.60
1075;DHT22;526;51.392;12.448;2023-05-07T15:47:37;13.90;95.50
1075;DHT22;526;51.392;12.448;2023-05-07T15:50:03;13.90;95.80
1075;DHT22;526;51.392;12.448;2023-05-07T15:52:29;13.90;96.30
1075;DHT22;526;51.392;12.448;2023-05-07T15:54:55;13.80;96.80
1075;DHT22;526;51.392;12.448;2023-05-07T15:57:22;13.80;97.20
1075;DHT22;526;51.392;12.448;2023-05-07T15:59:47;13.80;97.30
1075;DHT22;526;51.392;12.448;2023-05-07T16:02:13;13.70;97.10
1075;DHT22;526;51.392;12.448;2023-05-07T16:04:39;13.70;96.60
1075;DHT22;526;51.392;12.448;2023-05-07T16:07:04;13.60;96.60
1075;DHT22;526;51.392;12.448;2023-05-07T16:09:30;13.50;96.80
1075;DHT22;526;51.392;12.448;2023-05-07T16:11:55;13.40;97.20
1075;DHT22;526;51.392;12.448;2023-05-07T16:14:21;13.40;96.60
1075;DHT22;526;51.392;12.448;2023-05-07T16:16:47;13.30;97.00
1075;DHT22;526;51.392;12.448;2023-05-07T16:19:12;13.40;97.10
1075;DHT22;526;51.392;12.448;2023-05-07T16:21:39;13.30;96.90
1075;DHT22;526;51.392;12.448;2023-05-07T16:24:05;13.30;97.20
1075;DHT22;526;51.392;12.448;2023-05-07T16:26:31;13.40;97.20